sensor_id;sensor_type;location;lat;lon;timestamp;temperature;humidity
5743;DHT22;2896;53.500;10.020;2023-08-31T00:00:42;14.40;1.00
5743;DHT22;2896;53.500;10.020;2023-08-31T00:03:09;14.20;99.90
5743;DHT22;2896;53.500;10.020;2023-08-31T00:05:37;14.20;99.90
5743;DHT22;2896;53.500;10.020;2023-08-31T00:08:06;14.20;99.90
5743;DHT22;2896;53.500;10.020;2023-08-31T00:10:32;12.20;99.90
5743;DHT22;2896;53.500;10.020;2023-08-31T00:13:02;14.20;99.90
5743;DHT22;2896;53.500;10.020;2023-08-31T00:15:29;14.10;99.90
5743;DHT22;2896;53.500;10.020;2023-08-31T00:17:58;14.10;1.00
5743;DHT22;2896;53.500;10.020;2023-08-31T00:20:24;14.10;1.00
5743;DHT22;2896;53.500;10.020;2023-08-31T00:22:52;14.10;1.00
5743;DHT22;2896;53.500;10.020;2023-08-31T00:25:18;14.00;1.00
5743;DHT22;2896;53.500;10.020;2023-08-31T00:27:45;14.00;1.00
5743;DHT22;2896;53.500;10.020;2023-08-31T00:30:15;14.00;1.00
5743;DHT22;2896;53.500;10.020;2023-08-31T00:32:41;14.00;1.00
5743;DHT22;2896;53.500;10.020;2023-08-31T00:35:08;14.00;1.00
5743;DHT22;2896;53.500;10.020;2023-08-31T00:37:35;14.00;1.00
5743;DHT22;2896;53.500;10.020;2023-08-31T00:40:02;13.90;1.00
5743;DHT22;2896;53.500;10.020;2023-08-31T00:42:30;13.90;1.00
5743;DHT22;2896;53.500;10.020;2023-08-31T00:44:57;13.90;1.00
5743;DHT22;2896;53.500;10.020;2023-08-31T00:47:26;13.90;1.00
5743;DHT22;2896;53.500;10.020;2023-08-31T00:49:53;13.80;1.00
5743;DHT22;2896;53.500;10.020;2023-08-31T00:52:19;13.80;1.00
5743;DHT22;2896;53.500;10.020;2023-08-31T00:54:46;13.70;1.00
5743;DHT22;2896;53.500;10.020;2023-08-31T00:57:14;13.70;1.00
5743;DHT22;2896;53.500;10.020;2023-08-31T00:59:40;13.70;1.00
5743;DHT22;2896;53.500;10.020;2023-08-31T01:02:11;13.70;1.00
5743;DHT22;2896;53.500;10.020;2023-08-31T01:04:48;13.70;1.00
5743;DHT22;2896;53.500;10.020;2023-08-31T01:07:24;13.70;1.00
5743;DHT22;2896;53.500;10.020;2023-08-31T01:10:00;13.70;1.00
5743;DHT22;2896;53.500;10.020;2023-08-31T01:12:40;13.70;1.00
5743;DHT22;2896;53.500;10.020;2023-08-31T01:15:11;13.60;99.90
5743;DHT22;2896;53.500;10.020;2023-08-31T01:17:41;13.70;1.00
5743;DHT22;2896;53.500;10.020;2023-08-31T01:20:15;13.60;99.90
5743;DHT22;2896;53.500;10.020;2023-08-31T01:22:47;13.60;99.90
5743;DHT22;2896;53.500;10.020;2023-08-31T01:25:16;13.50;99.90
5743;DHT22;2896;53.500;10.020;2023-08-31T01:27:43;13.50;1.00
5743;DHT22;2896;53.500;10.020;2023-08-31T01:30:11;13.50;1.00
5743;DHT22;2896;53.500;10.020;2023-08-31T01:32:37;13.40;1.00
5743;DHT22;2896;53.500;10.020;2023-08-31T01:35:05;13.40;1.00
5743;DHT22;2896;53.500;10.020;2023-08-31T01:37:39;13.40;1.00
5743;DHT22;2896;53.500;10.020;2023-08-31T01:40:14;13.40;1.00
5743;DHT22;2896;53.500;10.020;2023-08-31T01:42:43;13.40;1.00
5743;DHT22;2896;53.500;10.020;2023-08-31T01:45:14;13.40;1.00
5743;DHT22;2896;53.500;10.020;2023-08-31T01:47:42;13.40;1.00
5743;DHT22;2896;53.500;10.020;2023-08-31T01:50:09;13.30;1.00
5743;DHT22;2896;53.500;10.020;2023-08-31T01:52:35;14.60;1.00
5743;DHT22;2896;53.500;10.020;2023-08-31T01:55:03;13.30;1.00
5743;DHT22;2896;53.500;10.020;2023-08-31T01:57:30;13.20;1.00
5743;DHT22;2896;53.500;10.020;2023-08-31T01:59:59;13.20;1.00
5743;DHT22;2896;53.500;10.020;2023-08-31T02:02:25;13.20;1.00
5743;DHT22;2896;53.500;10.020;2023-08-31T02:04:52;13.20;1.00
5743;DHT22;2896;53.500;10.020;2023-08-31T02:07:19;13.10;1.00
5743;DHT22;2896;53.500;10.020;2023-08-31T02:09:45;13.00;1.00
5743;DHT22;2896;53.500;10.020;2023-08-31T02:12:12;14.60;1.00
5743;DHT22;2896;53.500;10.020;2023-08-31T02:14:39;13.00;1.00
5743;DHT22;2896;53.500;10.020;2023-08-31T02:17:07;12.90;1.00
5743;DHT22;2896;53.500;10.020;2023-08-31T02:19:33;12.90;1.00
5743;DHT22;2896;53.500;10.020;2023-08-31T02:22:00;12.90;1.00
5743;DHT22;2896;53.500;10.020;2023-08-31T02:24:26;12.90;1.00
5743;DHT22;2896;53.500;10.020;2023-08-31T02:26:52;12.80;1.00
5743;DHT22;2896;53.500;10.020;2023-08-31T02:29:19;12.80;1.00
5743;DHT22;2896;53.500;10.020;2023-08-31T02:31:45;12.80;1.00
5743;DHT22;2896;53.500;10.020;2023-08-31T02:34:14;12.80;1.00
5743;DHT22;2896;53.500;10.020;2023-08-31T02:36:40;12.70;1.00
5743;DHT22;2896;53.500;10.020;2023-08-31T02:39:07;13.80;1.00
5743;DHT22;2896;53.500;10.020;2023-08-31T02:41:34;12.70;1.00
5743;DHT22;2896;53.500;10.020;2023-08-31T02:44:01;12.70;1.00
5743;DHT22;2896;53.500;10.020;2023-08-31T02:46:28;12.60;1.00
5743;DHT22;2896;53.500;10.020;2023-08-31T02:48:54;12.60;1.00
5743;DHT22;2896;53.500;10.020;2023-08-31T02:51:23;13.30;1.00
5743;DHT22;2896;53.500;10.020;2023-08-31T02:53:49;12.50;1.00
5743;DHT22;2896;53.500;10.020;2023-08-31T02:56:17;12.50;1.00
5743;DHT22;2896;53.500;10.020;2023-08-31T02:58:44;12.40;1.00
5743;DHT22;2896;53.500;10.020;2023-08-31T03:01:12;12.40;1.00
5743;DHT22;2896;53.500;10.020;2023-08-31T03:03:39;12.40;1.00
5743;DHT22;2896;53.500;10.020;2023-08-31T03:06:06;12.40;3.40
5743;DHT22;2896;53.500;10.020;2023-08-31T03:08:35;12.50;1.00
5743;DHT22;2896;53.500;10.020;2023-08-31T03:11:02;12.40;1.00
5743;DHT22;2896;53.500;10.020;2023-08-31T03:13:29;12.40;1.00
5743;DHT22;2896;53.500;10.020;2023-08-31T03:15:55;12.40;1.00
5743;DHT22;2896;53.500;10.020;2023-08-31T03:18:22;12.40;1.00
5743;DHT22;2896;53.500;10.020;2023-08-31T03:20:49;12.40;1.00
5743;DHT22;2896;53.500;10.020;2023-08-31T03:23:16;12.40;1.00
5743;DHT22;2896;53.500;10.020;2023-08-31T03:25:44;12.30;1.00
5743;DHT22;2896;53.500;10.020;2023-08-31T03:28:10;12.30;1.00
5743;DHT22;2896;53.500;10.020;2023-08-31T03:30:37;12.30;1.00
5743;DHT22;2896;53.500;10.020;2023-08-31T03:33:04;12.30;1.00
5743;DHT22;2896;53.500;10.020;2023-08-31T03:35:31;12.30;1.00
5743;DHT22;2896;53.500;10.020;2023-08-31T03:37:58;12.20;1.00
5743;DHT22;2896;53.500;10.020;2023-08-31T03:40:25;12.20;1.00
5743;DHT22;2896;53.500;10.020;2023-08-31T03:42:53;12.20;1.00
5743;DHT22;2896;53.500;10.020;2023-08-31T03:45:20;12.20;1.00
5743;DHT22;2896;53.500;10.020;2023-08-31T03:47:46;12.20;1.00
5743;DHT22;2896;53.500;10.020;2023-08-31T03:50:13;12.20;1.00
5743;DHT22;2896;53.500;10.020;2023-08-31T03:52:40;12.20;1.00
5743;DHT22;2896;53.500;10.020;2023-08-31T03:55:07;12.10;1.00
5743;DHT22;2896;53.500;10.020;2023-08-31T03:57:33;12.10;1.00
5743;DHT22;2896;53.500;10.020;2023-08-31T04:00:02;12.20;1.00
5743;DHT22;2896;53.500;10.020;2023-08-31T04:02:34;12.20;1.00
5743;DHT22;2896;53.500;10.020;2023-08-31T04:05:00;12.10;1.00
5743;DHT22;2896;53.500;10.020;2023-08-31T04:07:30;12.10;1.00
5743;DHT22;2896;53.500;10.020;2023-08-31T04:09:57;12.00;1.00
5743;DHT22;2896;53.500;10.020;2023-08-31T04:12:24;12.00;1.00
5743;DHT22;2896;53.500;10.020;2023-08-31T04:14:50;12.00;1.00
5743;DHT22;2896;53.500;10.020;2023-08-31T04:17:18;12.00;1.00
5743;DHT22;2896;53.500;10.020;2023-08-31T04:19:45;11.90;1.00
5743;DHT22;2896;53.500;10.020;2023-08-31T04:22:12;11.90;1.00
5743;DHT22;2896;53.500;10.020;2023-08-31T04:24:39;11.90;1.00
5743;DHT22;2896;53.500;10.020;2023-08-31T04:27:05;11.90;1.00
5743;DHT22;2896;53.500;10.020;2023-08-31T04:29:33;11.90;1.00
5743;DHT22;2896;53.500;10.020;2023-08-31T04:32:00;11.90;1.00
5743;DHT22;2896;53.500;10.020;2023-08-31T04:34:28;11.90;1.00
5743;DHT22;2896;53.500;10.020;2023-08-31T04:36:54;11.90;1.00
5743;DHT22;2896;53.500;10.020;2023-08-31T04:39:21;11.90;1.00
5743;DHT22;2896;53.500;10.020;2023-08-31T04:41:48;11.90;1.00
5743;DHT22;2896;53.500;10.020;2023-08-31T04:44:14;11.90;1.00
5743;DHT22;2896;53.500;10.020;2023-08-31T04:46:42;11.90;1.00
5743;DHT22;2896;53.500;10.020;2023-08-31T04:49:09;11.90;1.00
5743;DHT22;2896;53.500;10.020;2023-08-31T04:51:37;11.90;1.00
5743;DHT22;2896;53.500;10.020;2023-08-31T04:54:05;11.90;1.00
5743;DHT22;2896;53.500;10.020;2023-08-31T04:56:33;11.90;1.00
5743;DHT22;2896;53.500;10.020;2023-08-31T04:59:00;12.00;1.00
5743;DHT22;2896;53.500;10.020;2023-08-31T05:01:27;12.00;1.00
5743;DHT22;2896;53.500;10.020;2023-08-31T05:03:54;12.00;1.00
5743;DHT22;2896;53.500;10.020;2023-08-31T05:06:21;12.00;1.00
5743;DHT22;2896;53.500;10.020;2023-08-31T05:08:49;12.00;1.00
5743;DHT22;2896;53.500;10.020;2023-08-31T05:11:15;12.00;1.00
5743;DHT22;2896;53.500;10.020;2023-08-31T05:13:42;12.00;1.00
5743;DHT22;2896;53.500;10.020;2023-08-31T05:16:09;12.00;1.00
5743;DHT22;2896;53.500;10.020;2023-08-31T05:18:36;12.00;1.00
5743;DHT22;2896;53.500;10.020;2023-08-31T05:21:02;12.00;1.00
5743;DHT22;2896;53.500;10.020;2023-08-31T05:23:30;12.10;1.00
5743;DHT22;2896;53.500;10.020;2023-08-31T05:25:58;12.10;99.90
5743;DHT22;2896;53.500;10.020;2023-08-31T05:28:27;12.10;99.90
5743;DHT22;2896;53.500;10.020;2023-08-31T05:30:56;12.10;99.90
5743;DHT22;2896;53.500;10.020;2023-08-31T05:33:23;12.20;99.90
5743;DHT22;2896;53.500;10.020;2023-08-31T05:35:50;12.30;99.90
5743;DHT22;2896;53.500;10.020;2023-08-31T05:38:17;12.30;99.90
5743;DHT22;2896;53.500;10.020;2023-08-31T05:40:44;12.30;99.90
5743;DHT22;2896;53.500;10.020;2023-08-31T05:43:13;12.40;99.90
5743;DHT22;2896;53.500;10.020;2023-08-31T05:45:39;12.30;99.90
5743;DHT22;2896;53.500;10.020;2023-08-31T05:48:07;12.40;99.90
5743;DHT22;2896;53.500;10.020;2023-08-31T05:50:34;12.50;99.90
5743;DHT22;2896;53.500;10.020;2023-08-31T05:53:02;12.50;99.90
5743;DHT22;2896;53.500;10.020;2023-08-31T05:55:29;12.50;99.90
5743;DHT22;2896;53.500;10.020;2023-08-31T05:57:56;12.60;99.90
5743;DHT22;2896;53.500;10.020;2023-08-31T06:00:24;12.60;99.90
5743;DHT22;2896;53.500;10.020;2023-08-31T06:02:50;12.70;99.90
5743;DHT22;2896;53.500;10.020;2023-08-31T06:05:17;12.70;99.90
5743;DHT22;2896;53.500;10.020;2023-08-31T06:07:44;12.80;99.90
5743;DHT22;2896;53.500;10.020;2023-08-31T06:10:11;12.80;99.90
5743;DHT22;2896;53.500;10.020;2023-08-31T06:12:40;12.90;99.90
5743;DHT22;2896;53.500;10.020;2023-08-31T06:15:07;13.00;99.90
5743;DHT22;2896;53.500;10.020;2023-08-31T06:17:35;13.00;99.90
5743;DHT22;2896;53.500;10.020;2023-08-31T06:20:02;13.00;97.30
5743;DHT22;2896;53.500;10.020;2023-08-31T06:22:30;13.20;69.80
5743;DHT22;2896;53.500;10.020;2023-08-31T06:24:57;13.30;14.10
5743;DHT22;2896;53.500;10.020;2023-08-31T06:27:23;13.40;1.00
5743;DHT22;2896;53.500;10.020;2023-08-31T06:29:50;13.40;1.00
5743;DHT22;2896;53.500;10.020;2023-08-31T06:32:17;13.50;1.00
5743;DHT22;2896;53.500;10.020;2023-08-31T06:34:45;13.50;1.00
5743;DHT22;2896;53.500;10.020;2023-08-31T06:37:12;13.70;1.00
5743;DHT22;2896;53.500;10.020;2023-08-31T06:39:38;13.80;1.00
5743;DHT22;2896;53.500;10.020;2023-08-31T06:42:06;13.90;1.00
5743;DHT22;2896;53.500;10.020;2023-08-31T06:44:33;14.10;1.00
5743;DHT22;2896;53.500;10.020;2023-08-31T06:47:00;14.20;1.00
5743;DHT22;2896;53.500;10.020;2023-08-31T06:49:26;14.30;1.00
5743;DHT22;2896;53.500;10.020;2023-08-31T06:51:55;14.60;1.00
5743;DHT22;2896;53.500;10.020;2023-08-31T06:54:21;14.70;1.00
5743;DHT22;2896;53.500;10.020;2023-08-31T06:56:48;14.70;1.00
5743;DHT22;2896;53.500;10.020;2023-08-31T06:59:14;14.70;1.00
5743;DHT22;2896;53.500;10.020;2023-08-31T07:01:41;14.70;1.00
5743;DHT22;2896;53.500;10.020;2023-08-31T07:04:08;14.70;1.00
5743;DHT22;2896;53.500;10.020;2023-08-31T07:06:35;14.80;1.00
5743;DHT22;2896;53.500;10.020;2023-08-31T07:09:03;14.80;1.00
5743;DHT22;2896;53.500;10.020;2023-08-31T07:11:31;14.90;1.00
5743;DHT22;2896;53.500;10.020;2023-08-31T07:13:58;15.00;1.00
5743;DHT22;2896;53.500;10.020;2023-08-31T07:16:24;15.10;1.00
5743;DHT22;2896;53.500;10.020;2023-08-31T07:18:51;15.20;1.00
5743;DHT22;2896;53.500;10.020;2023-08-31T07:21:18;15.10;99.90
5743;DHT22;2896;53.500;10.020;2023-08-31T07:23:45;15.10;99.90
5743;DHT22;2896;53.500;10.020;2023-08-31T07:26:13;15.30;99.90
5743;DHT22;2896;53.500;10.020;2023-08-31T07:28:41;15.30;99.90
5743;DHT22;2896;53.500;10.020;2023-08-31T07:31:07;15.30;99.90
5743;DHT22;2896;53.500;10.020;2023-08-31T07:33:34;15.50;99.90
5743;DHT22;2896;53.500;10.020;2023-08-31T07:36:02;15.70;99.90
5743;DHT22;2896;53.500;10.020;2023-08-31T07:38:30;15.80;99.90
5743;DHT22;2896;53.500;10.020;2023-08-31T07:40:57;15.90;99.90
5743;DHT22;2896;53.500;10.020;2023-08-31T07:43:26;16.00;99.90
5743;DHT22;2896;53.500;10.020;2023-08-31T07:45:53;16.00;99.90
5743;DHT22;2896;53.500;10.020;2023-08-31T07:48:19;16.10;99.90
5743;DHT22;2896;53.500;10.020;2023-08-31T07:50:47;16.30;99.90
5743;DHT22;2896;53.500;10.020;2023-08-31T07:53:14;16.40;99.90
5743;DHT22;2896;53.500;10.020;2023-08-31T07:55:51;16.40;99.90
5743;DHT22;2896;53.500;10.020;2023-08-31T07:58:18;16.50;99.90
5743;DHT22;2896;53.500;10.020;2023-08-31T08:00:46;16.60;99.90
5743;DHT22;2896;53.500;10.020;2023-08-31T08:03:12;16.60;99.90
5743;DHT22;2896;53.500;10.020;2023-08-31T08:05:39;16.50;99.90
5743;DHT22;2896;53.500;10.020;2023-08-31T08:08:06;16.70;99.90
5743;DHT22;2896;53.500;10.020;2023-08-31T08:10:33;16.80;99.90
5743;DHT22;2896;53.500;10.020;2023-08-31T08:13:00;16.90;99.90
5743;DHT22;2896;53.500;10.020;2023-08-31T08:15:26;16.90;99.90
5743;DHT22;2896;53.500;10.020;2023-08-31T08:17:54;16.90;99.90
5743;DHT22;2896;53.500;10.020;2023-08-31T08:20:22;16.70;99.90
5743;DHT22;2896;53.500;10.020;2023-08-31T08:22:49;16.70;99.90
5743;DHT22;2896;53.500;10.020;2023-08-31T08:25:17;16.90;99.90
5743;DHT22;2896;53.500;10.020;2023-08-31T08:27:44;16.90;99.90
5743;DHT22;2896;53.500;10.020;2023-08-31T08:30:11;17.00;99.90
5743;DHT22;2896;53.500;10.020;2023-08-31T08:32:37;17.00;99.90
5743;DHT22;2896;53.500;10.020;2023-08-31T08:35:08;16.90;99.90
5743;DHT22;2896;53.500;10.020;2023-08-31T08:37:35;17.00;99.90
5743;DHT22;2896;53.500;10.020;2023-08-31T08:40:02;17.20;99.90
5743;DHT22;2896;53.500;10.020;2023-08-31T08:42:30;17.40;99.90
5743;DHT22;2896;53.500;10.020;2023-08-31T08:44:58;17.40;99.90
5743;DHT22;2896;53.500;10.020;2023-08-31T08:47:26;17.30;99.90
5743;DHT22;2896;53.500;10.020;2023-08-31T08:49:53;17.40;99.90
5743;DHT22;2896;53.500;10.020;2023-08-31T08:52:22;17.30;99.90
5743;DHT22;2896;53.500;10.020;2023-08-31T08:54:49;17.30;99.90
5743;DHT22;2896;53.500;10.020;2023-08-31T08:57:16;17.40;99.90
5743;DHT22;2896;53.500;10.020;2023-08-31T08:59:43;17.30;99.90
5743;DHT22;2896;53.500;10.020;2023-08-31T09:02:10;17.40;99.90
5743;DHT22;2896;53.500;10.020;2023-08-31T09:04:37;17.50;99.90
5743;DHT22;2896;53.500;10.020;2023-08-31T09:07:04;17.40;99.90
5743;DHT22;2896;53.500;10.020;2023-08-31T09:09:32;17.40;99.90
5743;DHT22;2896;53.500;10.020;2023-08-31T09:12:06;17.40;99.90
5743;DHT22;2896;53.500;10.020;2023-08-31T09:14:34;17.30;99.90
5743;DHT22;2896;53.500;10.020;2023-08-31T09:17:00;17.50;99.90
5743;DHT22;2896;53.500;10.020;2023-08-31T09:19:27;17.60;99.90
5743;DHT22;2896;53.500;10.020;2023-08-31T09:21:56;17.60;99.90
5743;DHT22;2896;53.500;10.020;2023-08-31T09:24:23;17.50;99.90
5743;DHT22;2896;53.500;10.020;2023-08-31T09:26:53;17.40;99.90
5743;DHT22;2896;53.500;10.020;2023-08-31T09:29:20;17.40;99.90
5743;DHT22;2896;53.500;10.020;2023-08-31T09:31:47;17.40;99.90
5743;DHT22;2896;53.500;10.020;2023-08-31T09:34:14;17.40;99.90
5743;DHT22;2896;53.500;10.020;2023-08-31T09:36:41;17.40;99.90
5743;DHT22;2896;53.500;10.020;2023-08-31T09:39:08;17.60;99.90
5743;DHT22;2896;53.500;10.020;2023-08-31T09:41:53;17.60;99.90
5743;DHT22;2896;53.500;10.020;2023-08-31T09:44:21;17.90;99.90
5743;DHT22;2896;53.500;10.020;2023-08-31T09:46:48;18.30;99.90
5743;DHT22;2896;53.500;10.020;2023-08-31T09:49:15;18.60;99.90
5743;DHT22;2896;53.500;10.020;2023-08-31T09:51:44;18.40;99.90
5743;DHT22;2896;53.500;10.020;2023-08-31T09:54:14;18.30;99.90
5743;DHT22;2896;53.500;10.020;2023-08-31T09:56:42;18.40;99.90
5743;DHT22;2896;53.500;10.020;2023-08-31T09:59:12;18.20;99.90
5743;DHT22;2896;53.500;10.020;2023-08-31T10:01:39;18.30;99.90
5743;DHT22;2896;53.500;10.020;2023-08-31T10:04:07;18.20;99.90
5743;DHT22;2896;53.500;10.020;2023-08-31T10:06:34;18.30;99.90
5743;DHT22;2896;53.500;10.020;2023-08-31T10:09:01;18.20;99.90
5743;DHT22;2896;53.500;10.020;2023-08-31T10:11:29;18.10;99.90
5743;DHT22;2896;53.500;10.020;2023-08-31T10:13:57;18.50;99.90
5743;DHT22;2896;53.500;10.020;2023-08-31T10:16:26;18.40;99.90
5743;DHT22;2896;53.500;10.020;2023-08-31T10:18:54;19.20;99.90
5743;DHT22;2896;53.500;10.020;2023-08-31T10:21:22;19.40;99.90
5743;DHT22;2896;53.500;10.020;2023-08-31T10:23:52;19.10;99.90
5743;DHT22;2896;53.500;10.020;2023-08-31T10:26:26;19.40;99.90
5743;DHT22;2896;53.500;10.020;2023-08-31T10:28:52;19.60;99.90
5743;DHT22;2896;53.500;10.020;2023-08-31T10:31:20;19.80;99.90
5743;DHT22;2896;53.500;10.020;2023-08-31T10:33:56;19.80;99.90
5743;DHT22;2896;53.500;10.020;2023-08-31T10:36:36;19.70;99.90
5743;DHT22;2896;53.500;10.020;2023-08-31T10:39:06;19.20;99.90
5743;DHT22;2896;53.500;10.020;2023-08-31T10:41:34;18.70;99.90
5743;DHT22;2896;53.500;10.020;2023-08-31T10:44:01;18.50;99.90
5743;DHT22;2896;53.500;10.020;2023-08-31T10:46:32;18.20;99.90
5743;DHT22;2896;53.500;10.020;2023-08-31T10:49:06;18.70;99.90
5743;DHT22;2896;53.500;10.020;2023-08-31T10:51:40;19.10;99.90
5743;DHT22;2896;53.500;10.020;2023-08-31T10:54:09;19.80;99.90
5743;DHT22;2896;53.500;10.020;2023-08-31T10:57:01;20.20;99.90
5743;DHT22;2896;53.500;10.020;2023-08-31T10:59:42;19.90;99.90
5743;DHT22;2896;53.500;10.020;2023-08-31T11:02:09;19.80;99.90
5743;DHT22;2896;53.500;10.020;2023-08-31T11:04:55;19.90;99.90
5743;DHT22;2896;53.500;10.020;2023-08-31T11:07:25;20.00;99.90
5743;DHT22;2896;53.500;10.020;2023-08-31T11:09:52;20.10;99.90
5743;DHT22;2896;53.500;10.020;2023-08-31T11:12:32;19.90;99.90
5743;DHT22;2896;53.500;10.020;2023-08-31T11:14:59;20.10;99.90
5743;DHT22;2896;53.500;10.020;2023-08-31T11:17:26;20.40;99.90
5743;DHT22;2896;53.500;10.020;2023-08-31T11:19:54;20.70;99.90
5743;DHT22;2896;53.500;10.020;2023-08-31T11:22:21;20.90;99.90
5743;DHT22;2896;53.500;10.020;2023-08-31T11:24:48;22.50;99.90
5743;DHT22;2896;53.500;10.020;2023-08-31T11:27:18;20.80;99.90
5743;DHT22;2896;53.500;10.020;2023-08-31T11:29:45;21.10;99.90
5743;DHT22;2896;53.500;10.020;2023-08-31T11:32:12;21.90;99.90
5743;DHT22;2896;53.500;10.020;2023-08-31T11:34:40;20.70;99.90
5743;DHT22;2896;53.500;10.020;2023-08-31T11:37:10;20.30;99.90
5743;DHT22;2896;53.500;10.020;2023-08-31T11:39:37;20.70;99.90
5743;DHT22;2896;53.500;10.020;2023-08-31T11:42:05;21.00;99.90
5743;DHT22;2896;53.500;10.020;2023-08-31T11:44:32;21.00;99.90
5743;DHT22;2896;53.500;10.020;2023-08-31T11:46:58;21.70;99.90
5743;DHT22;2896;53.500;10.020;2023-08-31T11:49:26;22.00;99.90
5743;DHT22;2896;53.500;10.020;2023-08-31T11:51:54;24.30;99.90
5743;DHT22;2896;53.500;10.020;2023-08-31T11:54:25;21.50;99.90
5743;DHT22;2896;53.500;10.020;2023-08-31T11:56:52;21.20;99.90
5743;DHT22;2896;53.500;10.020;2023-08-31T11:59:19;21.00;99.90
5743;DHT22;2896;53.500;10.020;2023-08-31T12:01:47;21.70;99.90
5743;DHT22;2896;53.500;10.020;2023-08-31T12:04:15;21.60;99.90
5743;DHT22;2896;53.500;10.020;2023-08-31T12:06:46;21.30;99.90
5743;DHT22;2896;53.500;10.020;2023-08-31T12:09:13;21.80;99.90
5743;DHT22;2896;53.500;10.020;2023-08-31T12:11:41;21.80;99.90
5743;DHT22;2896;53.500;10.020;2023-08-31T12:14:19;21.20;99.90
5743;DHT22;2896;53.500;10.020;2023-08-31T12:16:46;21.00;99.90
5743;DHT22;2896;53.500;10.020;2023-08-31T12:19:13;21.30;99.90
5743;DHT22;2896;53.500;10.020;2023-08-31T12:21:41;21.30;99.90
5743;DHT22;2896;53.500;10.020;2023-08-31T12:24:08;21.80;99.90
5743;DHT22;2896;53.500;10.020;2023-08-31T12:26:35;22.60;99.90
5743;DHT22;2896;53.500;10.020;2023-08-31T12:29:03;23.20;99.90
5743;DHT22;2896;53.500;10.020;2023-08-31T12:31:30;22.80;99.90
5743;DHT22;2896;53.500;10.020;2023-08-31T12:33:57;22.50;99.90
5743;DHT22;2896;53.500;10.020;2023-08-31T12:36:25;22.40;99.90
5743;DHT22;2896;53.500;10.020;2023-08-31T12:38:51;22.50;99.90
5743;DHT22;2896;53.500;10.020;2023-08-31T12:41:18;22.80;99.90
5743;DHT22;2896;53.500;10.020;2023-08-31T12:43:45;22.50;99.90
5743;DHT22;2896;53.500;10.020;2023-08-31T12:46:13;22.30;99.90
5743;DHT22;2896;53.500;10.020;2023-08-31T12:48:40;21.50;99.90
5743;DHT22;2896;53.500;10.020;2023-08-31T12:51:07;21.10;99.90
5743;DHT22;2896;53.500;10.020;2023-08-31T12:53:37;20.60;99.90
5743;DHT22;2896;53.500;10.020;2023-08-31T12:56:04;20.00;99.90
5743;DHT22;2896;53.500;10.020;2023-08-31T12:58:31;19.60;99.90
5743;DHT22;2896;53.500;10.020;2023-08-31T13:00:58;19.00;99.90
5743;DHT22;2896;53.500;10.020;2023-08-31T13:03:28;18.90;99.90
5743;DHT22;2896;53.500;10.020;2023-08-31T13:05:54;19.10;99.90
5743;DHT22;2896;53.500;10.020;2023-08-31T13:08:23;19.10;99.90
5743;DHT22;2896;53.500;10.020;2023-08-31T13:10:53;19.60;99.90
5743;DHT22;2896;53.500;10.020;2023-08-31T13:13:19;19.50;99.90
5743;DHT22;2896;53.500;10.020;2023-08-31T13:15:46;19.70;99.90
5743;DHT22;2896;53.500;10.020;2023-08-31T13:18:13;19.90;99.90
5743;DHT22;2896;53.500;10.020;2023-08-31T13:20:50;19.60;99.90
5743;DHT22;2896;53.500;10.020;2023-08-31T13:23:16;19.70;99.90
5743;DHT22;2896;53.500;10.020;2023-08-31T13:25:43;19.90;99.90
5743;DHT22;2896;53.500;10.020;2023-08-31T13:28:10;20.20;99.90
5743;DHT22;2896;53.500;10.020;2023-08-31T13:30:37;20.40;99.90
5743;DHT22;2896;53.500;10.020;2023-08-31T13:33:04;20.60;99.90
5743;DHT22;2896;53.500;10.020;2023-08-31T13:35:31;20.80;99.90
5743;DHT22;2896;53.500;10.020;2023-08-31T13:37:59;20.90;99.90
5743;DHT22;2896;53.500;10.020;2023-08-31T13:40:25;20.70;99.90
5743;DHT22;2896;53.500;10.020;2023-08-31T13:42:54;20.30;99.90
5743;DHT22;2896;53.500;10.020;2023-08-31T13:45:22;19.90;99.90
5743;DHT22;2896;53.500;10.020;2023-08-31T13:47:49;19.60;99.90
5743;DHT22;2896;53.500;10.020;2023-08-31T13:50:16;20.30;99.90
5743;DHT22;2896;53.500;10.020;2023-08-31T13:52:42;20.80;99.90
5743;DHT22;2896;53.500;10.020;2023-08-31T13:55:11;21.20;99.90
5743;DHT22;2896;53.500;10.020;2023-08-31T13:57:38;21.50;99.90
5743;DHT22;2896;53.500;10.020;2023-08-31T14:00:05;21.30;99.90
5743;DHT22;2896;53.500;10.020;2023-08-31T14:02:34;21.30;99.90
5743;DHT22;2896;53.500;10.020;2023-08-31T14:05:01;21.60;99.90
5743;DHT22;2896;53.500;10.020;2023-08-31T14:07:28;22.00;99.90
5743;DHT22;2896;53.500;10.020;2023-08-31T14:09:55;22.00;99.90
5743;DHT22;2896;53.500;10.020;2023-08-31T14:12:24;21.80;99.90
5743;DHT22;2896;53.500;10.020;2023-08-31T14:14:51;21.90;99.90
5743;DHT22;2896;53.500;10.020;2023-08-31T14:17:18;22.00;99.90
5743;DHT22;2896;53.500;10.020;2023-08-31T14:19:45;21.70;99.90
5743;DHT22;2896;53.500;10.020;2023-08-31T14:22:11;21.80;99.90
5743;DHT22;2896;53.500;10.020;2023-08-31T14:24:38;22.10;99.90
5743;DHT22;2896;53.500;10.020;2023-08-31T14:27:05;22.20;99.90
5743;DHT22;2896;53.500;10.020;2023-08-31T14:29:33;21.70;99.90
5743;DHT22;2896;53.500;10.020;2023-08-31T14:32:00;22.10;99.90
5743;DHT22;2896;53.500;10.020;2023-08-31T14:34:27;22.10;99.90
5743;DHT22;2896;53.500;10.020;2023-08-31T14:36:54;22.30;99.90
5743;DHT22;2896;53.500;10.020;2023-08-31T14:39:22;22.60;99.90
5743;DHT22;2896;53.500;10.020;2023-08-31T14:41:50;22.80;99.90
5743;DHT22;2896;53.500;10.020;2023-08-31T14:44:17;22.70;99.90
5743;DHT22;2896;53.500;10.020;2023-08-31T14:46:45;23.00;99.90
5743;DHT22;2896;53.500;10.020;2023-08-31T14:49:11;23.20;99.90
5743;DHT22;2896;53.500;10.020;2023-08-31T14:51:38;22.70;99.90
5743;DHT22;2896;53.500;10.020;2023-08-31T14:54:05;22.40;99.90
5743;DHT22;2896;53.500;10.020;2023-08-31T14:56:32;22.70;99.90
5743;DHT22;2896;53.500;10.020;2023-08-31T14:58:58;22.80;99.90
5743;DHT22;2896;53.500;10.020;2023-08-31T15:01:25;22.30;99.90
5743;DHT22;2896;53.500;10.020;2023-08-31T15:03:53;22.20;99.90
5743;DHT22;2896;53.500;10.020;2023-08-31T15:06:19;21.90;99.90
5743;DHT22;2896;53.500;10.020;2023-08-31T15:08:46;21.90;99.90
5743;DHT22;2896;53.500;10.020;2023-08-31T15:11:13;22.30;99.90
5743;DHT22;2896;53.500;10.020;2023-08-31T15:13:40;22.20;99.90
5743;DHT22;2896;53.500;10.020;2023-08-31T15:16:07;22.20;99.90
5743;DHT22;2896;53.500;10.020;2023-08-31T15:18:33;22.60;99.90
5743;DHT22;2896;53.500;10.020;2023-08-31T15:21:01;22.30;99.90
5743;DHT22;2896;53.500;10.020;2023-08-31T15:23:28;22.50;99.90
5743;DHT22;2896;53.500;10.020;2023-08-31T15:25:59;22.10;99.90
5743;DHT22;2896;53.500;10.020;2023-08-31T15:28:26;21.60;99.90
5743;DHT22;2896;53.500;10.020;2023-08-31T15:30:52;21.40;99.90
5743;DHT22;2896;53.500;10.020;2023-08-31T15:33:19;21.60;99.90
5743;DHT22;2896;53.500;10.020;2023-08-31T15:35:46;21.80;99.90
5743;DHT22;2896;53.500;10.020;2023-08-31T15:38:14;21.70;99.90
5743;DHT22;2896;53.500;10.020;2023-08-31T15:40:45;21.80;99.90
5743;DHT22;2896;53.500;10.020;2023-08-31T15:43:14;21.50;99.90
5743;DHT22;2896;53.500;10.020;2023-08-31T15:45:45;21.20;99.90
5743;DHT22;2896;53.500;10.020;2023-08-31T15:48:12;21.10;99.90
5743;DHT22;2896;53.500;10.020;2023-08-31T15:50:39;21.20;99.90
5743;DHT22;2896;53.500;10.020;2023-08-31T15:53:06;20.90;99.90
5743;DHT22;2896;53.500;10.020;2023-08-31T15:55:34;20.60;99.90